createdAt,value
2019-05-01T00:00:00.405Z,1011.62
2019-05-01T00:01:00.370Z,1011.61
2019-05-01T00:02:00.355Z,1011.58
2019-05-01T00:03:00.363Z,1011.61
2019-05-01T00:04:00.342Z,1011.62
2019-05-01T00:05:00.345Z,1011.61
2019-05-01T00:06:00.310Z,1011.67
2019-05-01T00:07:00.298Z,1011.62
2019-05-01T00:08:00.288Z,1011.65
2019-05-01T00:09:00.278Z,1011.64
2019-05-01T00:10:00.294Z,1011.64
2019-05-01T00:11:00.255Z,1011.61
2019-05-01T00:12:00.242Z,1011.59
2019-05-01T00:13:00.230Z,1011.58
2019-05-01T00:14:00.220Z,1011.57
2019-05-01T00:15:00.236Z,1011.60
2019-05-01T00:16:00.204Z,1011.60
2019-05-01T00:17:00.190Z,1011.64
2019-05-01T00:18:00.181Z,1011.59
2019-05-01T00:19:00.192Z,1011.56
2019-05-01T00:20:00.177Z,1011.59
2019-05-01T00:21:00.143Z,1011.62
2019-05-01T00:22:00.131Z,1011.63
2019-05-01T00:23:00.122Z,1011.58
2019-05-01T00:24:00.108Z,1011.61
2019-05-01T00:25:00.124Z,1011.58
2019-05-01T00:26:00.091Z,1011.56
2019-05-01T00:27:00.075Z,1011.56
2019-05-01T00:28:00.068Z,1011.55
2019-05-01T00:29:00.053Z,1011.52
2019-05-01T00:30:00.067Z,1011.54
2019-05-01T00:31:00.034Z,1011.54
2019-05-01T00:32:00.025Z,1011.52
2019-05-01T00:33:00.041Z,1011.57
2019-05-01T00:34:00.003Z,1011.51
2019-05-01T00:35:00.017Z,1011.53
2019-05-01T00:35:59.976Z,1011.56
2019-05-01T00:36:59.968Z,1011.51
2019-05-01T00:37:59.954Z,1011.49
2019-05-01T00:38:59.944Z,1011.48
2019-05-01T00:39:59.961Z,1011.44
2019-05-01T00:40:59.922Z,1011.48
2019-05-01T00:41:59.909Z,1011.50
2019-05-01T00:42:59.899Z,1011.46
2019-05-01T00:43:59.892Z,1011.46
2019-05-01T00:44:59.898Z,1011.44
2019-05-01T00:45:59.865Z,1011.46
2019-05-01T00:46:59.855Z,1011.44
2019-05-01T00:47:59.843Z,1011.45
2019-05-01T00:48:59.834Z,1011.37
2019-05-01T00:49:59.843Z,1011.40
2019-05-01T00:50:59.808Z,1011.38
2019-05-01T00:51:59.801Z,1011.35
2019-05-01T00:52:59.786Z,1011.37
2019-05-01T00:53:59.775Z,1011.36
2019-05-01T00:54:59.807Z,1011.36
2019-05-01T00:55:59.755Z,1011.34
2019-05-01T00:56:59.749Z,1011.35
2019-05-01T00:57:59.732Z,1011.34
2019-05-01T00:58:59.723Z,1011.30
2019-05-01T00:59:59.721Z,1011.29
2019-05-01T01:00:59.718Z,1011.28
2019-05-01T01:01:59.689Z,1011.26
2019-05-01T01:02:59.673Z,1011.24
2019-05-01T01:03:59.669Z,1011.29
2019-05-01T01:04:59.651Z,1011.26
2019-05-01T01:05:59.664Z,1011.30
2019-05-01T01:06:59.632Z,1011.27
2019-05-01T01:07:59.621Z,1011.21
2019-05-01T01:08:59.607Z,1011.34
2019-05-01T01:09:59.597Z,1011.27
2019-05-01T01:10:59.605Z,1011.29
2019-05-01T01:11:59.579Z,1011.31
2019-05-01T01:12:59.563Z,1011.31
2019-05-01T01:13:59.560Z,1011.32
2019-05-01T01:14:59.541Z,1011.32
2019-05-01T01:15:59.550Z,1011.33
2019-05-01T01:16:59.520Z,1011.33
2019-05-01T01:17:59.507Z,1011.33
2019-05-01T01:18:59.494Z,1011.31
2019-05-01T01:19:59.484Z,1011.31
2019-05-01T01:20:59.494Z,1011.27
2019-05-01T01:21:59.460Z,1011.25
2019-05-01T01:22:59.449Z,1011.27
2019-05-01T01:23:59.440Z,1011.24
2019-05-01T01:24:59.425Z,1011.20
2019-05-01T01:25:59.439Z,1011.21
2019-05-01T01:26:59.403Z,1011.17
2019-05-01T01:27:59.394Z,1011.19
2019-05-01T01:28:59.383Z,1011.15
2019-05-01T01:29:59.371Z,1011.16
2019-05-01T01:30:59.382Z,1011.17
2019-05-01T01:31:59.349Z,1011.13
2019-05-01T01:32:59.339Z,1011.18
2019-05-01T01:33:59.402Z,1011.13
2019-05-01T01:34:59.322Z,1011.14
2019-05-01T01:35:59.329Z,1011.14
2019-05-01T01:36:59.294Z,1011.15
2019-05-01T01:37:59.281Z,1011.18
2019-05-01T01:38:59.272Z,1011.19
2019-05-01T01:39:59.260Z,1011.15
2019-05-01T01:40:59.271Z,1011.17
2019-05-01T01:41:59.237Z,1011.17
2019-05-01T01:42:59.227Z,1011.16
2019-05-01T01:43:59.213Z,1011.13
2019-05-01T01:44:59.202Z,1011.16
2019-05-01T01:45:59.216Z,1011.09
2019-05-01T01:46:59.183Z,1011.11
2019-05-01T01:47:59.173Z,1011.12
2019-05-01T01:48:59.157Z,1011.12
2019-05-01T01:49:59.146Z,1011.14
2019-05-01T01:50:59.158Z,1011.12
2019-05-01T01:51:59.235Z,1011.12
2019-05-01T01:52:59.131Z,1011.14
2019-05-01T01:53:59.111Z,1011.11
2019-05-01T01:54:59.090Z,1011.11
2019-05-01T01:55:59.112Z,1011.11
2019-05-01T01:56:59.067Z,1011.11
2019-05-01T01:57:59.063Z,1011.06
2019-05-01T01:58:59.049Z,1011.07
2019-05-01T01:59:59.038Z,1011.02
2019-05-01T02:01:08.921Z,1011.00
2019-05-01T02:01:59.038Z,1010.99
2019-05-01T02:02:59.002Z,1010.99
2019-05-01T02:03:58.990Z,1010.95
2019-05-01T02:04:58.978Z,1010.96
2019-05-01T02:05:58.989Z,1010.96
2019-05-01T02:06:58.956Z,1010.93
2019-05-01T02:07:58.946Z,1010.96
2019-05-01T02:08:58.946Z,1010.94
2019-05-01T02:09:58.927Z,1010.95
2019-05-01T02:10:58.936Z,1010.92
2019-05-01T02:11:58.900Z,1010.92
2019-05-01T02:12:58.890Z,1010.94
2019-05-01T02:13:58.879Z,1010.94
2019-05-01T02:14:58.871Z,1010.91
2019-05-01T02:15:58.883Z,1010.90
2019-05-01T02:16:58.851Z,1010.95
2019-05-01T02:17:58.836Z,1010.96
2019-05-01T02:18:58.823Z,1010.91
2019-05-01T02:19:58.811Z,1010.94
2019-05-01T02:20:58.823Z,1010.98
2019-05-01T02:21:58.789Z,1010.90
2019-05-01T02:22:58.778Z,1010.93
2019-05-01T02:23:58.819Z,1010.91
2019-05-01T02:24:58.759Z,1010.90
2019-05-01T02:25:58.769Z,1010.92
2019-05-01T02:26:58.732Z,1010.88
2019-05-01T02:27:58.721Z,1010.90
2019-05-01T02:28:58.710Z,1010.90
2019-05-01T02:29:58.699Z,1010.88
2019-05-01T02:30:58.712Z,1010.87
2019-05-01T02:31:58.676Z,1010.92
2019-05-01T02:32:58.668Z,1010.88
2019-05-01T02:33:58.660Z,1010.83
2019-05-01T02:34:58.645Z,1010.83
2019-05-01T02:35:58.663Z,1010.81
2019-05-01T02:36:58.625Z,1010.87
2019-05-01T02:37:58.610Z,1010.88
2019-05-01T02:38:58.610Z,1010.82
2019-05-01T02:39:58.597Z,1010.86
2019-05-01T02:40:58.634Z,1010.85
2019-05-01T02:41:58.568Z,1010.81
2019-05-01T02:42:58.563Z,1010.82
2019-05-01T02:43:58.552Z,1010.81
2019-05-01T02:44:58.549Z,1010.82
2019-05-01T02:45:58.522Z,1010.80
2019-05-01T02:46:58.553Z,1010.80
2019-05-01T02:47:58.501Z,1010.81
2019-05-01T02:48:58.489Z,1010.82
2019-05-01T02:49:58.478Z,1010.79
2019-05-01T02:50:58.466Z,1010.87
2019-05-01T02:51:58.480Z,1010.83
2019-05-01T02:52:58.447Z,1010.82
2019-05-01T02:53:58.432Z,1010.84
2019-05-01T02:54:58.421Z,1010.85
2019-05-01T02:55:58.410Z,1010.83
2019-05-01T02:56:58.441Z,1010.81
2019-05-01T02:57:58.391Z,1010.73
2019-05-01T02:58:58.377Z,1010.75
2019-05-01T02:59:58.368Z,1010.77
2019-05-01T03:00:58.355Z,1010.80
2019-05-01T03:01:58.373Z,1010.83
2019-05-01T03:02:58.340Z,1010.81
2019-05-01T03:03:58.321Z,1010.80
2019-05-01T03:04:58.313Z,1010.77
2019-05-01T03:05:58.300Z,1010.76
2019-05-01T03:06:58.316Z,1010.74
2019-05-01T03:07:58.277Z,1010.77
2019-05-01T03:08:58.267Z,1010.75
2019-05-01T03:09:58.259Z,1010.75
2019-05-01T03:10:58.249Z,1010.76
2019-05-01T03:11:58.257Z,1010.75
2019-05-01T03:12:58.222Z,1010.73
2019-05-01T03:13:58.211Z,1010.78
2019-05-01T03:14:58.201Z,1010.76
2019-05-01T03:15:58.193Z,1010.76
2019-05-01T03:16:58.209Z,1010.76
2019-05-01T03:17:58.174Z,1010.78
2019-05-01T03:18:58.156Z,1010.76
2019-05-01T03:19:58.148Z,1010.71
2019-05-01T03:20:58.134Z,1010.77
2019-05-01T03:21:58.150Z,1010.74
2019-05-01T03:22:58.113Z,1010.73
2019-05-01T03:23:58.100Z,1010.77
2019-05-01T03:24:58.089Z,1010.75
2019-05-01T03:25:58.105Z,1010.70
2019-05-01T03:26:58.092Z,1010.73
2019-05-01T03:27:58.055Z,1010.68
2019-05-01T03:28:58.044Z,1010.66
2019-05-01T03:29:58.037Z,1010.71
2019-05-01T03:30:58.023Z,1010.70
2019-05-01T03:32:16.056Z,1010.74
2019-05-01T03:32:58.002Z,1010.74
2019-05-01T03:33:57.989Z,1010.73
2019-05-01T03:34:57.981Z,1010.75
2019-05-01T03:35:57.967Z,1010.70
2019-05-01T03:36:57.993Z,1010.73
2019-05-01T03:37:57.952Z,1010.71
2019-05-01T03:38:57.941Z,1010.73
2019-05-01T03:39:57.923Z,1010.68
2019-05-01T03:40:57.912Z,1010.75
2019-05-01T03:41:57.927Z,1010.75
2019-05-01T03:42:57.893Z,1010.75
2019-05-01T03:43:57.890Z,1010.74
2019-05-01T03:44:57.879Z,1010.74
2019-05-01T03:45:57.858Z,1010.69
2019-05-01T03:46:57.871Z,1010.74
2019-05-01T03:47:57.833Z,1010.73
2019-05-01T03:48:57.826Z,1010.73
2019-05-01T03:49:57.814Z,1010.72
2019-05-01T03:50:57.800Z,1010.70
2019-05-01T03:51:57.816Z,1010.64
2019-05-01T03:52:57.782Z,1010.66
2019-05-01T03:53:57.769Z,1010.62
2019-05-01T03:54:57.758Z,1010.65
2019-05-01T03:55:57.755Z,1010.61
2019-05-01T03:56:57.813Z,1010.62
2019-05-01T03:57:57.723Z,1010.63
2019-05-01T03:58:57.714Z,1010.60
2019-05-01T03:59:57.701Z,1010.63
2019-05-01T04:00:57.690Z,1010.65
2019-05-01T04:01:57.714Z,1010.66
2019-05-01T04:02:57.670Z,1010.64
2019-05-01T04:03:57.656Z,1010.66
2019-05-01T04:04:57.645Z,1010.61
2019-05-01T04:05:57.636Z,1010.63
2019-05-01T04:06:57.714Z,1010.63
2019-05-01T04:07:57.613Z,1010.66
2019-05-01T04:08:57.605Z,1010.68
2019-05-01T04:09:57.590Z,1010.63
2019-05-01T04:10:57.578Z,1010.62
2019-05-01T04:11:57.600Z,1010.65
2019-05-01T04:12:57.556Z,1010.67
2019-05-01T04:13:57.545Z,1010.66
2019-05-01T04:14:57.533Z,1010.70
2019-05-01T04:15:57.523Z,1010.65
2019-05-01T04:16:57.545Z,1010.67
2019-05-01T04:17:57.500Z,1010.65
2019-05-01T04:18:57.490Z,1010.70
2019-05-01T04:19:57.478Z,1010.68
2019-05-01T04:20:57.466Z,1010.68
2019-05-01T04:21:57.500Z,1010.67
2019-05-01T04:22:57.448Z,1010.68
2019-05-01T04:23:57.438Z,1010.65
2019-05-01T04:24:57.427Z,1010.69
2019-05-01T04:25:57.438Z,1010.69
2019-05-01T04:26:57.403Z,1010.66
2019-05-01T04:27:58.814Z,1010.71
2019-05-01T04:28:57.382Z,1010.71
2019-05-01T04:29:57.367Z,1010.76
2019-05-01T04:30:57.357Z,1010.73
2019-05-01T04:31:57.345Z,1010.75
2019-05-01T04:32:57.358Z,1010.74
2019-05-01T04:33:57.322Z,1010.74
2019-05-01T04:34:57.312Z,1010.75
2019-05-01T04:35:57.300Z,1010.72
2019-05-01T04:36:57.288Z,1010.75
2019-05-01T04:37:57.319Z,1010.76
2019-05-01T04:38:57.269Z,1010.77
2019-05-01T04:39:57.258Z,1010.76
2019-05-01T04:40:57.255Z,1010.78
2019-05-01T04:41:57.233Z,1010.71
2019-05-01T04:42:57.254Z,1010.72
2019-05-01T04:43:57.216Z,1010.70
2019-05-01T04:44:57.202Z,1010.72
2019-05-01T04:45:57.191Z,1010.73
2019-05-01T04:46:57.179Z,1010.73
2019-05-01T04:47:57.194Z,1010.76
2019-05-01T04:48:57.158Z,1010.72
2019-05-01T04:49:57.153Z,1010.69
2019-05-01T04:50:57.139Z,1010.67
2019-05-01T04:51:57.158Z,1010.74
2019-05-01T04:52:57.132Z,1010.74
2019-05-01T04:53:57.098Z,1010.74
2019-05-01T04:54:57.087Z,1010.79
2019-05-01T04:55:57.091Z,1010.74
2019-05-01T04:56:57.069Z,1010.74
2019-05-01T04:57:57.085Z,1010.73
2019-05-01T04:58:57.047Z,1010.77
2019-05-01T04:59:57.031Z,1010.74
2019-05-01T05:00:57.019Z,1010.74
2019-05-01T05:01:57.668Z,1010.81
2019-05-01T05:03:04.635Z,1010.77
2019-05-01T05:03:57.028Z,1010.79
2019-05-01T05:04:56.982Z,1010.76
2019-05-01T05:05:56.964Z,1010.76
2019-05-01T05:06:56.953Z,1010.77
2019-05-01T05:07:56.966Z,1010.75
2019-05-01T05:08:56.936Z,1010.78
2019-05-01T05:09:56.921Z,1010.75
2019-05-01T05:10:56.907Z,1010.77
2019-05-01T05:11:56.899Z,1010.76
2019-05-01T05:12:56.908Z,1010.78
2019-05-01T05:13:56.874Z,1010.80
2019-05-01T05:14:56.861Z,1010.79
2019-05-01T05:15:56.850Z,1010.80
2019-05-01T05:16:56.844Z,1010.78
2019-05-01T05:17:56.857Z,1010.80
2019-05-01T05:18:56.816Z,1010.77
2019-05-01T05:19:56.805Z,1010.81
2019-05-01T05:20:56.799Z,1010.78
2019-05-01T05:21:56.782Z,1010.78
2019-05-01T05:22:56.793Z,1010.73
2019-05-01T05:23:56.760Z,1010.74
2019-05-01T05:24:56.751Z,1010.75
2019-05-01T05:25:56.739Z,1010.73
2019-05-01T05:26:56.726Z,1010.74
2019-05-01T05:27:56.750Z,1010.77
2019-05-01T05:28:56.703Z,1010.72
2019-05-01T05:29:56.694Z,1010.75
2019-05-01T05:30:56.681Z,1010.78
2019-05-01T05:31:56.671Z,1010.79
2019-05-01T05:32:56.687Z,1010.77
2019-05-01T05:33:56.647Z,1010.75
2019-05-01T05:34:56.636Z,1010.77
2019-05-01T05:35:56.626Z,1010.77
2019-05-01T05:36:56.617Z,1010.82
2019-05-01T05:37:56.629Z,1010.80
2019-05-01T05:38:56.592Z,1010.76
2019-05-01T05:39:56.581Z,1010.79
2019-05-01T05:40:56.570Z,1010.85
2019-05-01T05:41:56.560Z,1010.85
2019-05-01T05:42:56.572Z,1010.82
2019-05-01T05:43:56.548Z,1010.81
2019-05-01T05:44:56.529Z,1010.79
2019-05-01T05:45:56.516Z,1010.80
2019-05-01T05:46:56.502Z,1010.78
2019-05-01T05:47:56.516Z,1010.79
2019-05-01T05:48:56.483Z,1010.80
2019-05-01T05:49:56.474Z,1010.81
2019-05-01T05:50:56.464Z,1010.78
2019-05-01T05:51:56.445Z,1010.81
2019-05-01T05:52:56.458Z,1010.81
2019-05-01T05:53:56.423Z,1010.83
2019-05-01T05:54:56.412Z,1010.83
2019-05-01T05:55:56.401Z,1010.79
2019-05-01T05:56:56.392Z,1010.83
2019-05-01T05:57:56.406Z,1010.87
2019-05-01T05:58:56.367Z,1010.80
2019-05-01T05:59:56.357Z,1010.80
2019-05-01T06:00:56.344Z,1010.79
2019-05-01T06:01:56.333Z,1010.76
2019-05-01T06:02:56.360Z,1010.77
2019-05-01T06:03:56.311Z,1010.77
2019-05-01T06:04:56.315Z,1010.79
2019-05-01T06:05:56.288Z,1010.81
2019-05-01T06:06:56.281Z,1010.75
2019-05-01T06:07:56.266Z,1010.75
2019-05-01T06:08:56.277Z,1010.75
2019-05-01T06:09:56.242Z,1010.79
2019-05-01T06:10:58.419Z,1010.71
2019-05-01T06:11:56.221Z,1010.73
2019-05-01T06:12:56.210Z,1010.77
2019-05-01T06:13:57.003Z,1010.79
2019-05-01T06:14:56.198Z,1010.80
2019-05-01T06:15:56.178Z,1010.79
2019-05-01T06:16:56.164Z,1010.79
2019-05-01T06:17:59.094Z,1010.82
2019-05-01T06:18:56.176Z,1010.78
2019-05-01T06:19:56.133Z,1010.78
2019-05-01T06:20:56.977Z,1010.72
2019-05-01T06:21:57.110Z,1010.73
2019-05-01T06:22:56.097Z,1010.73
2019-05-01T06:23:57.806Z,1010.72
2019-05-01T06:24:56.077Z,1010.69
2019-05-01T06:26:00.211Z,1010.77
2019-05-01T06:26:57.052Z,1010.76
2019-05-01T06:27:56.043Z,1010.71
2019-05-01T06:29:00.588Z,1010.75
2019-05-01T06:29:57.024Z,1010.72
2019-05-01T06:30:56.007Z,1010.72
2019-05-01T06:31:58.819Z,1010.69
2019-05-01T06:32:55.986Z,1010.72
2019-05-01T06:33:55.999Z,1010.72
2019-05-01T06:34:58.490Z,1010.71
2019-05-01T06:35:55.951Z,1010.77
2019-05-01T06:36:55.938Z,1010.78
2019-05-01T06:38:00.221Z,1010.78
2019-05-01T06:38:55.945Z,1010.78
2019-05-01T06:39:55.907Z,1010.75
2019-05-01T06:40:58.290Z,1010.78
2019-05-01T06:41:55.882Z,1010.74
2019-05-01T06:42:55.869Z,1010.75
2019-05-01T06:43:57.127Z,1010.77
2019-05-01T06:44:55.852Z,1010.75
2019-05-01T06:45:55.843Z,1010.72
2019-05-01T06:46:57.969Z,1010.76
2019-05-01T06:47:55.817Z,1010.76
2019-05-01T06:48:55.825Z,1010.75
2019-05-01T06:49:55.791Z,1010.75
2019-05-01T06:50:55.781Z,1010.73
2019-05-01T06:51:55.773Z,1010.75
2019-05-01T06:52:59.705Z,1010.73
2019-05-01T06:53:55.774Z,1010.71
2019-05-01T06:54:55.734Z,1010.70
2019-05-01T06:55:55.734Z,1010.71
2019-05-01T06:56:55.749Z,1010.70
2019-05-01T06:57:55.702Z,1010.70
2019-05-01T06:58:56.452Z,1010.70
2019-05-01T06:59:55.678Z,1010.72
2019-05-01T07:00:55.670Z,1010.75
2019-05-01T07:01:58.344Z,1010.77
2019-05-01T07:02:55.644Z,1010.74
2019-05-01T07:04:55.624Z,1010.73
2019-05-01T07:05:56.314Z,1010.76
2019-05-01T07:06:55.604Z,1010.76
2019-05-01T07:07:55.591Z,1010.72
2019-05-01T07:08:55.602Z,1010.75
2019-05-01T07:09:55.579Z,1010.78
2019-05-01T07:10:55.557Z,1010.75
2019-05-01T07:11:55.566Z,1010.75
2019-05-01T07:12:55.539Z,1010.73
2019-05-01T07:13:55.926Z,1010.77
2019-05-01T07:14:55.507Z,1010.75
2019-05-01T07:15:58.700Z,1010.76
2019-05-01T07:16:55.489Z,1010.79
2019-05-01T07:17:55.475Z,1010.76
2019-05-01T07:18:58.420Z,1010.76
2019-05-01T07:19:55.454Z,1010.77
2019-05-01T07:20:55.547Z,1010.78
2019-05-01T07:21:55.432Z,1010.77
2019-05-01T07:22:55.419Z,1010.77
2019-05-01T07:23:55.443Z,1010.72
2019-05-01T07:24:59.022Z,1010.73
2019-05-01T07:25:55.385Z,1010.73
2019-05-01T07:26:55.373Z,1010.73
2019-05-01T07:27:58.437Z,1010.71
2019-05-01T07:28:55.356Z,1010.71
2019-05-01T07:29:55.361Z,1010.74
2019-05-01T07:30:56.168Z,1010.69
2019-05-01T07:31:55.316Z,1010.70
2019-05-01T07:32:55.306Z,1010.70
2019-05-01T07:33:55.292Z,1010.69
2019-05-01T07:34:56.843Z,1010.70
2019-05-01T07:35:55.273Z,1010.67
2019-05-01T07:36:55.258Z,1010.67
2019-05-01T07:37:57.533Z,1010.67
2019-05-01T07:38:55.235Z,1010.69
2019-05-01T07:39:55.254Z,1010.67
2019-05-01T07:40:58.750Z,1010.69
2019-05-01T07:41:55.205Z,1010.71
2019-05-01T07:42:55.193Z,1010.68
2019-05-01T07:43:59.648Z,1010.70
2019-05-01T07:44:55.196Z,1010.69
2019-05-01T07:45:55.161Z,1010.72
2019-05-01T07:46:56.226Z,1010.74
2019-05-01T07:47:55.134Z,1010.75
2019-05-01T07:48:55.130Z,1010.72
2019-05-01T07:49:55.136Z,1010.69
2019-05-01T07:50:55.103Z,1010.71
2019-05-01T07:51:55.091Z,1010.74
2019-05-01T07:52:55.081Z,1010.74
2019-05-01T07:53:59.138Z,1010.70
2019-05-01T07:54:55.087Z,1010.75
2019-05-01T07:55:55.051Z,1010.78
2019-05-01T07:56:58.840Z,1010.73
2019-05-01T07:57:55.025Z,1010.72
2019-05-01T07:58:55.010Z,1010.73
2019-05-01T07:59:58.390Z,1010.70
2019-05-01T08:00:55.991Z,1010.71
2019-05-01T08:01:55.709Z,1010.72
2019-05-01T08:02:54.966Z,1010.74
2019-05-01T08:03:54.966Z,1010.76
2019-05-01T08:04:55.089Z,1010.75
2019-05-01T08:05:54.935Z,1010.83
2019-05-01T08:06:57.069Z,1010.80
2019-05-01T08:07:54.919Z,1010.81
2019-05-01T08:08:54.899Z,1010.79
2019-05-01T08:09:54.912Z,1010.80
2019-05-01T08:10:54.877Z,1010.76
2019-05-01T08:11:54.867Z,1010.81
2019-05-01T08:12:55.508Z,1010.80
2019-05-01T08:14:06.607Z,1010.79
2019-05-01T08:14:54.860Z,1010.83
2019-05-01T08:15:54.821Z,1010.81
2019-05-01T08:16:54.810Z,1010.79
2019-05-01T08:17:54.802Z,1010.79
2019-05-01T08:18:59.031Z,1010.75
2019-05-01T08:19:55.802Z,1010.72
2019-05-01T08:20:54.765Z,1010.75
2019-05-01T08:21:56.899Z,1010.76
2019-05-01T08:22:54.747Z,1010.81
2019-05-01T08:23:54.734Z,1010.84
2019-05-01T08:24:58.713Z,1010.82
2019-05-01T08:25:54.712Z,1010.83
2019-05-01T08:26:54.698Z,1010.81
2019-05-01T08:27:56.255Z,1010.79
2019-05-01T08:28:54.677Z,1010.83
2019-05-01T08:29:54.694Z,1010.78
2019-05-01T08:30:54.660Z,1010.82
2019-05-01T08:31:58.777Z,1010.81
2019-05-01T08:32:55.638Z,1010.80
2019-05-01T08:33:54.624Z,1010.81
2019-05-01T08:34:55.754Z,1010.85
2019-05-01T08:35:54.621Z,1010.86
2019-05-01T08:36:54.588Z,1010.82
2019-05-01T08:37:58.538Z,1010.84
2019-05-01T08:38:54.611Z,1010.85
2019-05-01T08:39:54.593Z,1010.88
2019-05-01T08:40:55.476Z,1010.84
2019-05-01T08:41:54.607Z,1010.89
2019-05-01T08:42:54.520Z,1010.83
2019-05-01T08:43:55.899Z,1010.83
2019-05-01T08:44:54.497Z,1010.84
2019-05-01T08:45:54.513Z,1010.88
2019-05-01T08:46:54.479Z,1010.89
2019-05-01T08:47:56.766Z,1010.87
2019-05-01T08:48:54.462Z,1010.86
2019-05-01T08:49:54.486Z,1010.86
2019-05-01T08:50:58.977Z,1010.88
2019-05-01T08:51:54.425Z,1010.87
2019-05-01T08:52:54.431Z,1010.86
2019-05-01T08:53:57.939Z,1010.87
2019-05-01T08:54:54.916Z,1010.84
2019-05-01T08:55:54.397Z,1010.81
2019-05-01T08:56:58.233Z,1010.82
2019-05-01T08:57:54.355Z,1010.83
2019-05-01T08:58:54.352Z,1010.82
2019-05-01T08:59:55.734Z,1010.87
2019-05-01T09:00:55.343Z,1010.81
2019-05-01T09:02:08.468Z,1010.85
2019-05-01T09:02:54.308Z,1010.86
2019-05-01T09:03:55.619Z,1010.88
2019-05-01T09:05:02.214Z,1010.81
2019-05-01T09:05:57.536Z,1010.80
2019-05-01T09:06:54.253Z,1010.81
2019-05-01T09:07:56.027Z,1010.78
2019-05-01T09:08:54.229Z,1010.77
2019-05-01T09:09:54.218Z,1010.82
2019-05-01T09:10:54.853Z,1010.78
2019-05-01T09:11:55.202Z,1010.77
2019-05-01T09:12:54.187Z,1010.75
2019-05-01T09:13:54.702Z,1010.75
2019-05-01T09:14:54.165Z,1010.74
2019-05-01T09:15:54.174Z,1010.76
2019-05-01T09:16:54.142Z,1010.75
2019-05-01T09:17:54.184Z,1010.74
2019-05-01T09:18:54.121Z,1010.77
2019-05-01T09:19:54.111Z,1010.75
2019-05-01T09:20:54.122Z,1010.73
2019-05-01T09:21:54.088Z,1010.75
2019-05-01T09:22:54.075Z,1010.72
2019-05-01T09:23:54.064Z,1010.71
2019-05-01T09:24:54.051Z,1010.71
2019-05-01T09:25:54.068Z,1010.71
2019-05-01T09:26:54.028Z,1010.71
2019-05-01T09:27:54.071Z,1010.70
2019-05-01T09:28:54.006Z,1010.68
2019-05-01T09:29:54.001Z,1010.65
2019-05-01T09:31:01.624Z,1010.68
2019-05-01T09:31:53.976Z,1010.62
2019-05-01T09:32:55.476Z,1010.62
2019-05-01T09:33:53.951Z,1010.64
2019-05-01T09:34:53.997Z,1010.60
2019-05-01T09:35:53.957Z,1010.60
2019-05-01T09:36:53.917Z,1010.63
2019-05-01T09:37:53.912Z,1010.55
2019-05-01T09:38:53.917Z,1010.53
2019-05-01T09:39:53.919Z,1010.57
2019-05-01T09:40:53.896Z,1010.54
2019-05-01T09:41:53.900Z,1010.54
2019-05-01T09:42:54.686Z,1010.59
2019-05-01T09:43:53.852Z,1010.54
2019-05-01T09:44:53.828Z,1010.56
2019-05-01T09:45:53.843Z,1010.56
2019-05-01T09:46:53.809Z,1010.52
2019-05-01T09:47:53.795Z,1010.54
2019-05-01T09:48:53.788Z,1010.57
2019-05-01T09:49:55.620Z,1010.58
2019-05-01T09:50:53.809Z,1010.60
2019-05-01T09:51:53.753Z,1010.58
2019-05-01T09:52:55.090Z,1010.58
2019-05-01T09:53:54.730Z,1010.56
2019-05-01T09:54:53.720Z,1010.56
2019-05-01T09:55:53.707Z,1010.54
2019-05-01T09:56:53.722Z,1010.53
2019-05-01T09:57:53.683Z,1010.55
2019-05-01T09:58:53.676Z,1010.51
2019-05-01T09:59:53.661Z,1010.49
2019-05-01T10:00:53.950Z,1010.49
2019-05-01T10:01:53.662Z,1010.45
2019-05-01T10:02:54.755Z,1010.45
2019-05-01T10:03:54.409Z,1010.41
2019-05-01T10:04:53.605Z,1010.43
2019-05-01T10:05:53.597Z,1010.40
2019-05-01T10:06:54.160Z,1010.38
2019-05-01T10:07:53.573Z,1010.43
2019-05-01T10:08:53.560Z,1010.37
2019-05-01T10:09:53.983Z,1010.38
2019-05-01T10:10:53.541Z,1010.34
2019-05-01T10:11:53.556Z,1010.38
2019-05-01T10:12:53.523Z,1010.35
2019-05-01T10:13:57.957Z,1010.31
2019-05-01T10:14:53.493Z,1010.32
2019-05-01T10:15:53.485Z,1010.29
2019-05-01T10:16:53.597Z,1010.29
2019-05-01T10:17:53.460Z,1010.32
2019-05-01T10:18:53.450Z,1010.23
2019-05-01T10:19:53.443Z,1010.24
2019-05-01T10:20:53.427Z,1010.20
2019-05-01T10:21:53.440Z,1010.22
2019-05-01T10:22:53.406Z,1010.20
2019-05-01T10:23:53.781Z,1010.24
2019-05-01T10:24:53.384Z,1010.22
2019-05-01T10:25:53.381Z,1010.17
2019-05-01T10:26:55.054Z,1010.19
2019-05-01T10:27:53.354Z,1010.13
2019-05-01T10:28:53.417Z,1010.16
2019-05-01T10:29:56.872Z,1010.18
2019-05-01T10:30:53.320Z,1010.14
2019-05-01T10:31:53.330Z,1010.22
2019-05-01T10:32:57.801Z,1010.17
2019-05-01T10:33:53.288Z,1010.15
2019-05-01T10:34:53.277Z,1010.10
2019-05-01T10:35:53.260Z,1010.07
2019-05-01T10:36:54.520Z,1010.04
2019-05-01T10:37:53.239Z,1010.06
2019-05-01T10:38:53.342Z,1009.94
2019-05-01T10:39:54.110Z,1010.02
2019-05-01T10:40:53.204Z,1009.95
2019-05-01T10:41:53.217Z,1009.95
2019-05-01T10:42:53.183Z,1009.96
2019-05-01T10:43:53.190Z,1009.95
2019-05-01T10:44:53.225Z,1009.94
2019-05-01T10:45:53.159Z,1009.96
2019-05-01T10:46:53.161Z,1009.91
2019-05-01T10:47:53.141Z,1009.92
2019-05-01T10:48:53.124Z,1009.91
2019-05-01T10:49:53.108Z,1009.94
2019-05-01T10:50:53.095Z,1009.93
2019-05-01T10:51:53.110Z,1009.87
2019-05-01T10:52:53.073Z,1009.90
2019-05-01T10:53:53.062Z,1009.89
2019-05-01T10:54:53.050Z,1009.80
2019-05-01T10:55:53.051Z,1009.83
2019-05-01T10:56:53.052Z,1009.84
2019-05-01T10:57:53.017Z,1009.89
2019-05-01T10:58:53.009Z,1009.80
2019-05-01T10:59:53.005Z,1009.80
2019-05-01T11:00:52.984Z,1009.73
2019-05-01T11:01:52.997Z,1009.81
2019-05-01T11:02:52.962Z,1009.73
2019-05-01T11:03:52.951Z,1009.72
2019-05-01T11:04:52.948Z,1009.68
2019-05-01T11:05:56.058Z,1009.68
2019-05-01T11:06:52.947Z,1009.64
2019-05-01T11:07:52.910Z,1009.63
2019-05-01T11:08:52.902Z,1009.68
2019-05-01T11:09:52.888Z,1009.55
2019-05-01T11:10:52.879Z,1009.56
2019-05-01T11:11:52.897Z,1009.55
2019-05-01T11:12:52.872Z,1009.56
2019-05-01T11:13:52.850Z,1009.48
2019-05-01T11:14:52.833Z,1009.52
2019-05-01T11:15:52.826Z,1009.57
2019-05-01T11:16:52.848Z,1009.48
2019-05-01T11:17:52.803Z,1009.48
2019-05-01T11:18:52.870Z,1009.48
2019-05-01T11:19:52.784Z,1009.48
2019-05-01T11:20:52.775Z,1009.49
2019-05-01T11:21:52.759Z,1009.44
2019-05-01T11:22:52.776Z,1009.48
2019-05-01T11:23:52.736Z,1009.45
2019-05-01T11:24:52.724Z,1009.51
2019-05-01T11:25:52.715Z,1009.48
2019-05-01T11:26:52.702Z,1009.47
2019-05-01T11:27:52.720Z,1009.55
2019-05-01T11:28:52.682Z,1009.50
2019-05-01T11:29:52.673Z,1009.49
2019-05-01T11:30:52.657Z,1009.48
2019-05-01T11:31:52.653Z,1009.45
2019-05-01T11:32:52.661Z,1009.46
2019-05-01T11:33:52.627Z,1009.46
2019-05-01T11:34:52.633Z,1009.51
2019-05-01T11:35:52.605Z,1009.49
2019-05-01T11:36:52.594Z,1009.53
2019-05-01T11:37:52.617Z,1009.46
2019-05-01T11:38:52.573Z,1009.46
2019-05-01T11:39:52.565Z,1009.45
2019-05-01T11:40:52.556Z,1009.35
2019-05-01T11:41:52.544Z,1009.41
2019-05-01T11:42:52.558Z,1009.44
2019-05-01T11:43:52.521Z,1009.42
2019-05-01T11:44:52.531Z,1009.43
2019-05-01T11:45:52.500Z,1009.45
2019-05-01T11:46:52.509Z,1009.47
2019-05-01T11:47:52.503Z,1009.44
2019-05-01T11:48:52.470Z,1009.42
2019-05-01T11:49:52.460Z,1009.42
2019-05-01T11:50:52.450Z,1009.42
2019-05-01T11:51:52.444Z,1009.44
2019-05-01T11:52:52.459Z,1009.39
2019-05-01T11:53:52.450Z,1009.36
2019-05-01T11:54:52.414Z,1009.42
2019-05-01T11:55:52.401Z,1009.42
2019-05-01T11:56:52.392Z,1009.39
2019-05-01T11:57:52.407Z,1009.28
2019-05-01T11:58:52.382Z,1009.34
2019-05-01T11:59:52.365Z,1009.34
2019-05-01T12:00:52.353Z,1009.35
2019-05-01T12:01:52.343Z,1009.32
2019-05-01T12:02:52.356Z,1009.26
2019-05-01T12:03:52.325Z,1009.15
2019-05-01T12:04:52.322Z,1009.17
2019-05-01T12:05:52.313Z,1009.16